Terminal Aerodrome Forecast
Issued by NWS

Home | Current Version | Previous Version | Text Only | Print | Product List | Glossary On
Versions: 1 2 3 4 5 6 7 8 9 10 11 12 13 14
000
FTAK31 PANC 291734
TAFAHO
TAF
PAHO 291734Z 2918/3018 09007KT P6SM VCSH BKN035 OVC045
     FM300600 08008KT P6SM VCSH SCT050 BKN100
     FM301000 06015G25KT P6SM VCSH SCT030 BKN100=

USA.gov is the U.S. government's official web portal to all federal, state and local government web resources and services.